Time;durP1;ratioP1;P1;durP2;ratioP2;P2;SDS_P1;SDS_P2;PMS_P1;PMS_P2;Temp;Humidity;BMP_temperature;BMP_pressure;BME280_temperature;BME280_humidity;BME280_pressure;Samples;Min_cycle;Max_cycle;Signal;HPM_P1;HPM_P2
2021/05/28 00:01:15;;;;;;;45.28;16.02;;;14.00;99.90;;;;;;4738766;30;20545;-84
2021/05/28 00:03:41;;;;;;;50.20;18.90;;;14.00;99.90;;;;;;4753625;30;20194;-85
2021/05/28 00:06:07;;;;;;;33.42;15.02;;;14.00;99.90;;;;;;4737746;30;20190;-85
2021/05/28 00:08:33;;;;;;;33.17;14.95;;;14.00;99.90;;;;;;4723178;30;20229;-85
2021/05/28 00:10:58;;;;;;;42.33;13.80;;;14.00;99.90;;;;;;4753791;30;20191;-85
2021/05/28 00:13:25;;;;;;;35.50;13.93;;;14.00;99.90;;;;;;4723273;30;20316;-85
2021/05/28 00:15:50;;;;;;;33.33;12.93;;;14.00;99.90;;;;;;4737437;30;20190;-85
2021/05/28 00:18:16;;;;;;;40.97;14.00;;;14.00;99.90;;;;;;4723246;30;20194;-85
2021/05/28 00:20:42;;;;;;;39.45;14.68;;;14.00;99.90;;;;;;4737202;30;20658;-85
2021/05/28 00:23:08;;;;;;;50.88;17.85;;;14.00;99.90;;;;;;4753408;30;20747;-84
2021/05/28 00:25:35;;;;;;;44.70;16.77;;;13.40;99.90;;;;;;4722657;30;20215;-85
2021/05/28 00:28:01;;;;;;;36.67;15.50;;;13.90;99.90;;;;;;4737470;30;20268;-85
2021/05/28 00:30:26;;;;;;;38.00;13.95;;;13.90;99.90;;;;;;4737383;30;20282;-84
2021/05/28 00:32:52;;;;;;;41.53;16.63;;;14.00;99.90;;;;;;4737293;30;20230;-84
2021/05/28 00:35:18;;;;;;;38.50;15.45;;;13.90;99.90;;;;;;4737289;30;20712;-85
2021/05/28 00:37:44;;;;;;;39.08;13.95;;;13.90;99.90;;;;;;4722529;30;20191;-85
2021/05/28 00:40:11;;;;;;;37.55;16.40;;;13.90;99.90;;;;;;4753381;30;20195;-85
2021/05/28 00:42:37;;;;;;;39.97;14.32;;;13.90;99.90;;;;;;4722461;30;20203;-84
2021/05/28 00:45:04;;;;;;;38.05;15.50;;;13.90;99.90;;;;;;4722601;30;20259;-85
2021/05/28 00:47:29;;;;;;;41.85;14.48;;;13.90;99.90;;;;;;4736972;30;20237;-84
2021/05/28 00:49:55;;;;;;;31.63;13.50;;;13.90;99.90;;;;;;4722676;30;20186;-85
2021/05/28 00:52:21;;;;;;;30.50;12.82;;;13.80;99.90;;;;;;4737154;30;20676;-85
2021/05/28 00:54:47;;;;;;;27.02;10.40;;;13.80;99.90;;;;;;4722456;30;20194;-85
2021/05/28 00:57:13;;;;;;;24.88;10.73;;;13.80;99.90;;;;;;4737256;30;20225;-84
2021/05/28 00:59:39;;;;;;;20.23;8.85;;;13.80;99.90;;;;;;4707780;30;20566;-85
2021/05/28 01:02:05;;;;;;;24.77;9.50;;;13.80;99.90;;;;;;4737100;30;20290;-85
2021/05/28 01:04:31;;;;;;;18.38;9.13;;;13.80;99.90;;;;;;4722269;30;20197;-85
2021/05/28 01:06:57;;;;;;;13.32;8.15;;;13.80;99.90;;;;;;4736477;30;20191;-85
2021/05/28 01:09:22;;;;;;;16.38;8.85;;;13.80;99.90;;;;;;4737032;30;20637;-85
2021/05/28 01:11:48;;;;;;;16.60;8.13;;;13.80;99.90;;;;;;4737106;30;20183;-85
2021/05/28 01:14:14;;;;;;;15.48;8.38;;;13.80;99.90;;;;;;4752441;30;20234;-85
2021/05/28 01:16:40;;;;;;;18.20;8.50;;;13.80;99.90;;;;;;4736490;30;20187;-85
2021/05/28 01:19:06;;;;;;;23.48;8.52;;;13.80;99.90;;;;;;4707909;30;20300;-84
2021/05/28 01:21:31;;;;;;;22.92;7.55;;;13.70;99.90;;;;;;4737226;30;20187;-85
2021/05/28 01:23:57;;;;;;;19.75;8.05;;;13.70;99.90;;;;;;4721734;30;20300;-85
2021/05/28 01:26:23;;;;;;;16.27;7.68;;;13.70;99.90;;;;;;4722218;30;20227;-84
2021/05/28 01:28:49;;;;;;;13.30;7.85;;;;;;;;;;4736329;30;20186;-85
2021/05/28 01:31:15;;;;;;;14.38;7.72;;;13.70;99.90;;;;;;4752366;30;20191;-84
2021/05/28 01:33:43;;;;;;;18.85;7.97;;;13.70;99.90;;;;;;4736384;30;20223;-85
2021/05/28 01:36:09;;;;;;;16.80;7.35;;;13.60;99.90;;;;;;4707256;30;20701;-84
2021/05/28 01:38:35;;;;;;;14.63;6.95;;;13.60;99.90;;;;;;4736766;30;20195;-84
2021/05/28 01:41:00;;;;;;;11.63;6.78;;;13.60;99.90;;;;;;4736779;30;20187;-84
2021/05/28 01:43:26;;;;;;;11.50;6.90;;;13.50;99.90;;;;;;4752349;30;20637;-84
2021/05/28 01:45:52;;;;;;;16.30;7.15;;;;;;;;;;4721556;30;20190;-84
2021/05/28 01:48:18;;;;;;;12.50;6.82;;;13.50;99.90;;;;;;4752097;30;20258;-84
2021/05/28 01:50:44;;;;;;;17.17;6.90;;;13.50;99.90;;;;;;4736092;30;20578;-84
2021/05/28 01:53:18;;;;;;;12.38;6.45;;;13.50;99.90;;;;;;4736415;30;20227;-84
2021/05/28 01:55:44;;;;;;;10.48;6.65;;;13.50;99.90;;;;;;4751937;30;20222;-84
2021/05/28 01:58:15;;;;;;;10.18;6.55;;;13.50;99.90;;;;;;4752100;30;20684;-84
2021/05/28 02:00:42;;;;;;;10.60;6.40;;;13.50;99.90;;;;;;4751483;30;20187;-84
2021/05/28 02:03:08;;;;;;;14.38;6.13;;;13.50;99.90;;;;;;4735978;30;20249;-84
2021/05/28 02:05:35;;;;;;;10.68;5.90;;;13.50;99.90;;;;;;4752204;30;20194;-84
2021/05/28 02:08:02;;;;;;;10.93;5.38;;;13.50;99.90;;;;;;4721387;30;20190;-84
2021/05/28 02:10:30;;;;;;;8.35;5.13;;;13.50;99.90;;;;;;4752073;30;20320;-84
2021/05/28 02:12:57;;;;;;;8.23;5.82;;;13.50;99.90;;;;;;4735689;30;20313;-84
2021/05/28 02:15:24;;;;;;;6.80;5.40;;;13.50;99.90;;;;;;4752195;30;20654;-84
2021/05/28 02:17:50;;;;;;;7.50;5.05;;;13.50;99.90;;;;;;4721676;30;20672;-85
2021/05/28 02:20:17;;;;;;;10.02;5.50;;;13.50;99.90;;;;;;4753604;30;20187;-84
2021/05/28 02:22:42;;;;;;;8.35;5.57;;;13.50;99.90;;;;;;4735904;30;20646;-84
2021/05/28 02:25:09;;;;;;;10.50;5.28;;;13.50;99.90;;;;;;4736138;30;20190;-84
2021/05/28 02:27:35;;;;;;;7.13;5.28;;;13.50;99.90;;;;;;4736191;30;20195;-84
2021/05/28 02:30:03;;;;;;;10.30;5.28;;;13.50;99.90;;;;;;4736075;30;20194;-84
2021/05/28 02:32:28;;;;;;;9.45;5.00;;;13.50;99.90;;;;;;4752241;30;20250;-84
2021/05/28 02:34:54;;;;;;;9.25;5.18;;;13.40;99.90;;;;;;4736053;30;20670;-84
2021/05/28 02:37:20;;;;;;;7.95;5.07;;;13.50;99.90;;;;;;4736367;30;20535;-83
2021/05/28 02:39:46;;;;;;;11.07;5.82;;;13.50;99.90;;;;;;4756625;30;20183;-84
2021/05/28 02:42:12;;;;;;;7.97;5.25;;;13.50;99.90;;;;;;4756945;30;20275;-84
2021/05/28 02:44:38;;;;;;;5.85;4.90;;;13.50;99.90;;;;;;4726274;30;20240;-84
2021/05/28 02:47:04;;;;;;;11.75;5.20;;;13.40;99.90;;;;;;4721132;30;20191;-84
2021/05/28 02:49:30;;;;;;;13.68;4.82;;;13.40;99.90;;;;;;4755325;30;20186;-84
2021/05/28 02:51:56;;;;;;;10.30;5.20;;;;;;;;;;4739212;30;20215;-85
2021/05/28 02:54:24;;;;;;;8.48;5.38;;;13.40;99.90;;;;;;4755064;30;20230;-84
2021/05/28 02:56:50;;;;;;;7.65;5.00;;;13.40;99.90;;;;;;4739004;30;20178;-85
2021/05/28 02:59:16;;;;;;;7.60;5.30;;;13.40;99.90;;;;;;4738863;30;20194;-84
2021/05/28 03:01:41;;;;;;;8.95;5.47;;;13.30;99.90;;;;;;4739270;30;20187;-84
2021/05/28 03:04:07;;;;;;;10.15;6.13;;;13.30;99.90;;;;;;4738696;30;20198;-84
2021/05/28 03:06:33;;;;;;;8.57;5.88;;;13.30;99.90;;;;;;4755249;30;20543;-84
2021/05/28 03:08:59;;;;;;;9.63;6.25;;;13.20;99.90;;;;;;4754819;30;20201;-84
2021/05/28 03:11:25;;;;;;;9.38;6.40;;;13.10;99.90;;;;;;4755064;30;20190;-84
2021/05/28 03:13:50;;;;;;;9.02;6.75;;;13.00;99.90;;;;;;4754040;30;20231;-84
2021/05/28 03:16:16;;;;;;;9.55;6.18;;;13.00;99.90;;;;;;4738615;30;20191;-84
2021/05/28 03:18:51;;;;;;;9.48;6.78;;;12.90;99.90;;;;;;4738599;30;20590;-83
2021/05/28 03:21:36;;;;;;;9.15;6.95;;;12.90;99.90;;;;;;4738502;30;20545;-84
2021/05/28 03:24:03;;;;;;;9.32;7.63;;;12.80;99.90;;;;;;4754150;30;20234;-84
2021/05/28 03:26:30;;;;;;;8.57;7.63;;;12.80;99.90;;;;;;4754172;30;20715;-84
2021/05/28 03:28:58;;;;;;;11.23;7.72;;;12.80;99.90;;;;;;4736085;30;20194;-84
2021/05/28 03:31:25;;;;;;;14.48;8.25;;;12.80;99.90;;;;;;4745460;30;20187;-84
2021/05/28 03:33:51;;;;;;;11.95;7.70;;;12.80;99.90;;;;;;4727954;30;20241;-85
2021/05/28 03:36:17;;;;;;;13.68;9.30;;;12.70;99.90;;;;;;4743471;30;20191;-84
2021/05/28 03:38:44;;;;;;;13.48;9.30;;;12.70;99.90;;;;;;4744829;30;20182;-84
2021/05/28 03:41:10;;;;;;;12.10;8.40;;;12.70;99.90;;;;;;4736243;30;20179;-84
2021/05/28 03:43:36;;;;;;;13.90;8.32;;;12.70;99.90;;;;;;4721841;30;20207;-85
2021/05/28 03:46:03;;;;;;;10.90;8.55;;;12.60;99.90;;;;;;4731229;30;20190;-85
2021/05/28 03:48:29;;;;;;;11.05;8.88;;;12.60;99.90;;;;;;4746977;30;20719;-85
2021/05/28 03:50:55;;;;;;;11.05;9.30;;;12.60;99.90;;;;;;4750673;30;20429;-84
2021/05/28 03:53:21;;;;;;;13.27;7.97;;;12.60;99.90;;;;;;4739288;30;20324;-84
2021/05/28 03:55:47;;;;;;;10.40;7.72;;;12.60;99.90;;;;;;4743992;30;20192;-84
2021/05/28 03:58:13;;;;;;;9.88;7.88;;;12.60;99.90;;;;;;4735472;30;20191;-84
2021/05/28 04:00:38;;;;;;;10.73;7.90;;;12.60;99.90;;;;;;4735706;30;20186;-84
2021/05/28 04:03:04;;;;;;;11.48;8.48;;;12.60;99.90;;;;;;4735913;30;20551;-83
2021/05/28 04:05:30;;;;;;;12.20;7.88;;;12.60;99.90;;;;;;4736808;30;20249;-84
2021/05/28 04:07:56;;;;;;;10.40;7.80;;;12.70;99.90;;;;;;4749524;30;20201;-84
2021/05/28 04:10:22;;;;;;;11.43;8.50;;;12.70;99.90;;;;;;4736022;30;20191;-84
2021/05/28 04:12:47;;;;;;;9.05;7.60;;;12.70;99.90;;;;;;4735520;30;20292;-84
2021/05/28 04:15:13;;;;;;;16.30;8.35;;;12.70;99.90;;;;;;4733305;30;20195;-84
2021/05/28 04:17:39;;;;;;;12.80;8.35;;;12.80;99.90;;;;;;4749354;30;20186;-85
2021/05/28 04:20:05;;;;;;;10.23;8.13;;;12.80;99.90;;;;;;4720270;30;20202;-84
2021/05/28 04:22:31;;;;;;;10.35;8.05;;;13.00;99.90;;;;;;4750162;30;20537;-85
2021/05/28 04:24:57;;;;;;;12.05;9.00;;;12.80;99.90;;;;;;4751293;30;20211;-85
2021/05/28 04:27:23;;;;;;;14.80;8.95;;;12.80;99.90;;;;;;4749949;30;20195;-84
2021/05/28 04:29:48;;;;;;;11.25;9.50;;;12.60;99.90;;;;;;4750331;30;20198;-84
2021/05/28 04:32:16;;;;;;;13.10;9.93;;;12.90;99.90;;;;;;4747889;30;20198;-83
2021/05/28 04:34:42;;;;;;;11.95;9.23;;;12.80;99.90;;;;;;4735680;30;20198;-83
2021/05/28 04:37:08;;;;;;;10.60;9.15;;;;;;;;;;4750736;30;20183;-84
2021/05/28 04:39:34;;;;;;;12.60;9.45;;;12.80;99.90;;;;;;4749641;30;20183;-84
2021/05/28 04:41:59;;;;;;;16.88;8.90;;;12.80;99.90;;;;;;4734841;30;20561;-85
2021/05/28 04:44:25;;;;;;;12.63;8.90;;;12.70;99.90;;;;;;4751366;30;20206;-83
2021/05/28 04:46:52;;;;;;;11.50;8.63;;;12.70;99.90;;;;;;4738937;30;20769;-86
2021/05/28 04:49:17;;;;;;;11.48;8.85;;;12.70;99.90;;;;;;4751732;30;20203;-85
2021/05/28 04:51:43;;;;;;;11.52;8.52;;;12.60;99.90;;;;;;4748961;30;20199;-85
2021/05/28 04:54:09;;;;;;;13.77;9.60;;;12.60;99.90;;;;;;4748936;30;20575;-86
2021/05/28 04:56:34;;;;;;;11.50;9.32;;;12.60;99.90;;;;;;4734463;30;20270;-85
2021/05/28 04:59:00;;;;;;;13.30;11.18;;;12.60;99.90;;;;;;4731827;30;20560;-84
2021/05/28 05:01:25;;;;;;;16.25;9.80;;;14.30;99.90;;;;;;4734263;30;20198;-85
2021/05/28 05:03:52;;;;;;;13.95;10.02;;;12.50;99.90;;;;;;4747618;30;20210;-84
2021/05/28 05:06:17;;;;;;;11.50;9.75;;;12.50;99.90;;;;;;4732290;30;20202;-84
2021/05/28 05:08:44;;;;;;;13.13;10.30;;;12.50;99.90;;;;;;4748756;30;20586;-84
2021/05/28 05:11:10;;;;;;;16.27;10.43;;;12.40;99.90;;;;;;4717403;30;20211;-84
2021/05/28 05:13:36;;;;;;;15.43;10.05;;;12.50;99.90;;;;;;4718895;30;20237;-83
2021/05/28 05:16:02;;;;;;;18.77;10.25;;;12.40;99.90;;;;;;4734102;30;20191;-84
2021/05/28 05:18:28;;;;;;;18.33;11.48;;;12.40;99.90;;;;;;4718840;30;20286;-84
2021/05/28 05:20:53;;;;;;;15.77;11.38;;;12.40;99.90;;;;;;4749665;30;20195;-84
2021/05/28 05:23:19;;;;;;;14.30;11.40;;;12.40;99.90;;;;;;4725126;30;20689;-85
2021/05/28 05:25:45;;;;;;;16.98;11.57;;;12.50;99.90;;;;;;4749376;30;20202;-83
2021/05/28 05:28:11;;;;;;;13.88;11.10;;;12.50;99.90;;;;;;4749785;30;20191;-84
2021/05/28 05:30:38;;;;;;;15.48;11.88;;;12.50;99.90;;;;;;4718505;30;20205;-82
2021/05/28 05:33:04;;;;;;;17.00;11.32;;;12.40;99.90;;;;;;4746570;30;20230;-84
2021/05/28 05:35:29;;;;;;;18.65;11.00;;;12.50;99.90;;;;;;4719221;30;20240;-83
2021/05/28 05:37:55;;;;;;;14.25;11.10;;;12.50;99.90;;;;;;4750176;30;20649;-84
2021/05/28 05:40:21;;;;;;;14.85;10.73;;;12.40;99.90;;;;;;4733138;30;20205;-83
2021/05/28 05:42:46;;;;;;;14.85;11.35;;;12.40;99.90;;;;;;4730400;30;20234;-85
2021/05/28 05:45:13;;;;;;;17.02;11.68;;;12.40;99.90;;;;;;4735081;30;20229;-84
2021/05/28 05:47:41;;;;;;;13.48;11.02;;;12.40;99.90;;;;;;4719112;30;20843;-84
2021/05/28 05:50:08;;;;;;;17.02;11.43;;;12.30;99.90;;;;;;4733206;30;20209;-84
2021/05/28 05:52:34;;;;;;;17.85;11.85;;;12.30;99.90;;;;;;4749227;30;20263;-84
2021/05/28 05:54:59;;;;;;;13.90;11.35;;;12.30;99.90;;;;;;4733104;30;20552;-84
2021/05/28 05:57:25;;;;;;;15.35;11.90;;;12.30;99.90;;;;;;4732905;30;20213;-84
2021/05/28 05:59:51;;;;;;;19.00;12.52;;;;;;;;;;4734195;30;20628;-85
2021/05/28 06:02:17;;;;;;;20.08;12.43;;;12.40;99.90;;;;;;4734928;30;20665;-84
2021/05/28 06:04:43;;;;;;;15.35;12.48;;;12.50;99.90;;;;;;4750109;30;20270;-85
2021/05/28 06:07:08;;;;;;;15.25;12.15;;;12.50;99.90;;;;;;4749695;30;20209;-85
2021/05/28 06:09:34;;;;;;;16.95;12.00;;;12.50;99.90;;;;;;4734424;30;20729;-84
2021/05/28 06:12:00;;;;;;;15.45;12.05;;;12.50;99.90;;;;;;4725836;30;20207;-84
2021/05/28 06:14:26;;;;;;;12.98;11.00;;;;;;;;;;4750021;30;20234;-86
2021/05/28 06:16:52;;;;;;;15.00;11.23;;;12.50;99.90;;;;;;4749462;30;20202;-87
2021/05/28 06:19:18;;;;;;;12.52;10.38;;;12.60;99.90;;;;;;4748836;30;20377;-87
2021/05/28 06:21:44;;;;;;;15.82;12.70;;;12.60;99.90;;;;;;4734038;30;20301;-86
2021/05/28 06:24:10;;;;;;;14.85;12.07;;;12.60;99.90;;;;;;4753071;30;20242;-87
2021/05/28 06:26:35;;;;;;;12.65;10.27;;;12.60;99.90;;;;;;4726208;30;20211;-88
2021/05/28 06:29:02;;;;;;;14.43;10.85;;;;;;;;;;4736316;30;20555;-87
2021/05/28 06:31:29;;;;;;;11.82;9.25;;;12.60;99.90;;;;;;4753783;30;20191;-86
2021/05/28 06:33:55;;;;;;;12.88;10.27;;;12.60;99.90;;;;;;4737483;30;20226;-87
2021/05/28 06:36:21;;;;;;;19.90;11.52;;;12.70;99.90;;;;;;4723290;30;20548;-85
2021/05/28 06:38:47;;;;;;;18.33;11.77;;;;;;;;;;4737778;30;20205;-86
2021/05/28 06:41:13;;;;;;;19.80;12.02;;;12.80;99.90;;;;;;4753402;30;20203;-87
2021/05/28 06:43:38;;;;;;;19.50;12.95;;;12.90;99.90;;;;;;4737346;30;20665;-86
2021/05/28 06:46:04;;;;;;;14.05;11.77;;;13.00;99.90;;;;;;4720221;30;20210;-86
2021/05/28 06:48:30;;;;;;;18.95;11.55;;;13.00;99.90;;;;;;4706237;30;20966;-86
2021/05/28 06:50:56;;;;;;;14.43;10.57;;;13.10;99.90;;;;;;4750530;30;20609;-87
2021/05/28 06:53:21;;;;;;;14.50;10.70;;;13.00;99.90;;;;;;4721544;30;20244;-87
2021/05/28 06:55:47;;;;;;;18.30;12.32;;;13.10;99.90;;;;;;4723498;30;20233;-88
2021/05/28 06:58:13;;;;;;;19.58;12.32;;;13.20;99.90;;;;;;4735947;30;20222;-86
2021/05/28 07:00:38;;;;;;;17.02;12.20;;;13.30;99.90;;;;;;4736178;30;20687;-85
2021/05/28 07:03:04;;;;;;;14.80;11.00;;;13.40;99.90;;;;;;4734775;30;20287;-90
2021/05/28 07:05:30;;;;;;;13.52;8.65;;;13.10;99.90;;;;;;4751895;30;20282;-88
2021/05/28 07:07:56;;;;;;;11.32;8.40;;;13.50;99.90;;;;;;4736712;30;20875;-88
2021/05/28 07:10:23;;;;;;;10.98;7.28;;;13.50;99.90;;;;;;4751804;30;20562;-88
2021/05/28 07:12:49;;;;;;;9.93;7.50;;;13.50;99.90;;;;;;4737088;30;20226;-92
2021/05/28 07:15:15;;;;;;;13.27;7.60;;;13.50;99.90;;;;;;4722993;30;20234;-90
2021/05/28 07:17:41;;;;;;;15.57;8.35;;;13.50;99.90;;;;;;4735667;30;20282;-88
2021/05/28 07:20:07;;;;;;;13.02;7.70;;;13.50;99.90;;;;;;4723216;30;20613;-88
2021/05/28 07:22:33;;;;;;;9.82;7.95;;;13.60;99.90;;;;;;4736931;30;20205;-87
2021/05/28 07:24:59;;;;;;;9.38;7.55;;;13.70;99.90;;;;;;4752554;30;20187;-88
2021/05/28 07:27:26;;;;;;;14.63;8.65;;;13.60;99.90;;;;;;4751398;30;20221;-88
2021/05/28 07:29:51;;;;;;;12.25;9.57;;;13.60;99.90;;;;;;4734113;30;20210;-87
2021/05/28 07:32:18;;;;;;;21.13;12.02;;;13.70;99.90;;;;;;4736477;30;20645;-88
2021/05/28 07:34:44;;;;;;;13.40;9.73;;;13.80;99.90;;;;;;4735637;30;20198;-89
2021/05/28 07:37:10;;;;;;;13.85;9.63;;;13.80;99.90;;;;;;4736553;30;20205;-88
2021/05/28 07:39:36;;;;;;;9.30;7.68;;;13.80;99.90;;;;;;4736666;30;20198;-89
2021/05/28 07:42:04;;;;;;;12.43;7.25;;;13.80;99.90;;;;;;4733776;30;20658;-88
2021/05/28 07:44:30;;;;;;;12.38;6.70;;;13.90;99.90;;;;;;4737641;30;20282;-87
2021/05/28 07:46:56;;;;;;;6.72;5.53;;;14.00;99.90;;;;;;4740915;30;20284;-88
2021/05/28 07:49:22;;;;;;;7.75;5.55;;;13.80;99.90;;;;;;4736222;30;20329;-87
2021/05/28 07:51:48;;;;;;;9.75;5.45;;;14.00;99.90;;;;;;4748927;30;20344;-88
2021/05/28 07:54:14;;;;;;;8.27;6.97;;;14.10;99.90;;;;;;4757732;30;20299;-88
2021/05/28 07:56:40;;;;;;;7.70;4.90;;;14.20;99.90;;;;;;4767462;30;20195;-89
2021/05/28 07:59:07;;;;;;;7.50;5.32;;;14.20;99.90;;;;;;4764083;30;20621;-88
2021/05/28 08:01:33;;;;;;;7.82;5.75;;;14.30;99.90;;;;;;4736520;30;20645;-88
2021/05/28 08:04:00;;;;;;;5.20;4.13;;;14.50;99.90;;;;;;4752004;30;20199;-89
2021/05/28 08:06:27;;;;;;;5.63;4.38;;;14.50;99.90;;;;;;4751833;30;20229;-89
2021/05/28 08:08:53;;;;;;;6.32;5.15;;;14.50;99.90;;;;;;4733845;30;20215;-87
2021/05/28 08:11:19;;;;;;;5.00;4.50;;;14.50;99.90;;;;;;4752077;30;20199;-88
2021/05/28 08:13:44;;;;;;;6.63;4.90;;;14.50;99.90;;;;;;4750833;30;20222;-88
2021/05/28 08:16:10;;;;;;;5.60;5.00;;;14.50;99.90;;;;;;4734735;30;20203;-88
2021/05/28 08:18:37;;;;;;;5.47;4.97;;;14.60;99.90;;;;;;4734349;30;20277;-88
2021/05/28 08:21:04;;;;;;;5.57;5.07;;;14.50;99.90;;;;;;4734505;30;20194;-88
2021/05/28 08:23:30;;;;;;;6.00;4.57;;;14.50;99.90;;;;;;4734492;30;20241;-88
2021/05/28 08:25:56;;;;;;;5.38;4.45;;;14.60;99.90;;;;;;4734275;30;20187;-87
2021/05/28 08:28:22;;;;;;;5.20;4.60;;;14.50;99.90;;;;;;4751115;30;20195;-86
2021/05/28 08:30:47;;;;;;;4.60;4.20;;;14.60;99.90;;;;;;4717415;30;20183;-85
2021/05/28 08:33:14;;;;;;;5.78;4.45;;;14.80;99.90;;;;;;4735532;30;20214;-88
2021/05/28 08:35:42;;;;;;;4.78;3.90;;;14.80;99.90;;;;;;4721148;30;20225;-87
2021/05/28 08:38:08;;;;;;;46.65;8.05;;;14.80;99.90;;;;;;4735665;30;20198;-85
2021/05/28 08:40:34;;;;;;;11.55;5.57;;;14.80;99.90;;;;;;4751216;30;20328;-87
2021/05/28 08:43:05;;;;;;;7.50;4.60;;;14.90;99.90;;;;;;4735214;30;20205;-86
2021/05/28 08:45:35;;;;;;;6.45;4.40;;;14.90;99.90;;;;;;4751309;30;20797;-86
2021/05/28 08:48:02;;;;;;;6.35;5.50;;;15.00;99.90;;;;;;4735479;30;20190;-84
2021/05/28 08:50:28;;;;;;;16.55;6.18;;;15.00;99.90;;;;;;4734800;30;20206;-85
2021/05/28 08:52:54;;;;;;;76.82;13.02;;;15.10;99.90;;;;;;4751062;30;20218;-86
2021/05/28 08:55:19;;;;;;;12.80;6.53;;;15.10;99.90;;;;;;4735133;30;20205;-86
2021/05/28 08:57:45;;;;;;;9.50;6.05;;;15.20;99.90;;;;;;4720576;30;20344;-85
2021/05/28 09:00:12;;;;;;;7.70;6.07;;;15.20;99.90;;;;;;4750081;30;20195;-86
2021/05/28 09:02:39;;;;;;;10.70;5.85;;;15.30;99.90;;;;;;4734951;30;20206;-85
2021/05/28 09:05:11;;;;;;;47.33;14.18;;;15.40;99.90;;;;;;4735162;30;20214;-86
2021/05/28 09:07:38;;;;;;;8.95;6.68;;;15.30;99.90;;;;;;4750475;30;20198;-86
2021/05/28 09:10:23;;;;;;;15.43;7.35;;;15.40;99.90;;;;;;4749887;30;20213;-86
2021/05/28 09:12:49;;;;;;;5.95;5.35;;;15.60;99.90;;;;;;4739147;30;20221;-86
2021/05/28 09:15:22;;;;;;;5.65;4.95;;;15.60;99.90;;;;;;4751362;30;20210;-86
2021/05/28 09:17:53;;;;;;;8.50;5.43;;;15.60;99.90;;;;;;4737575;30;20679;-85
2021/05/28 09:20:19;;;;;;;7.07;4.78;;;15.70;99.90;;;;;;4752271;30;20235;-87
2021/05/28 09:22:46;;;;;;;5.00;3.75;;;15.90;99.90;;;;;;4751954;30;20698;-86
2021/05/28 09:25:13;;;;;;;4.03;3.60;;;16.00;99.90;;;;;;4738341;30;20197;-86
2021/05/28 09:27:40;;;;;;;4.78;3.75;;;16.00;99.90;;;;;;4752030;30;20197;-85
2021/05/28 09:30:17;;;;;;;5.53;3.80;;;16.00;99.90;;;;;;4752578;30;20201;-85
2021/05/28 09:32:47;;;;;;;4.38;3.72;;;16.10;99.90;;;;;;4752320;30;20596;-86
2021/05/28 09:35:22;;;;;;;4.40;3.50;;;16.50;99.90;;;;;;4768634;30;20339;-86
2021/05/28 09:37:52;;;;;;;5.45;3.35;;;16.90;99.90;;;;;;4751984;30;20202;-87
2021/05/28 09:40:21;;;;;;;6.05;2.95;;;17.00;99.90;;;;;;4768792;30;20189;-86
2021/05/28 09:43:01;;;;;;;4.22;3.10;;;17.20;99.90;;;;;;4743699;30;20194;-86
2021/05/28 09:45:45;;;;;;;7.38;3.63;;;17.40;99.90;;;;;;4752286;30;20185;-85
2021/05/28 09:48:14;;;;;;;3.58;3.28;;;17.80;99.90;;;;;;4735877;30;20665;-85
2021/05/28 09:50:54;;;;;;;5.25;3.05;;;17.80;99.90;;;;;;4749942;30;20202;-84
2021/05/28 09:53:26;;;;;;;3.78;3.33;;;17.90;99.90;;;;;;4750017;30;20697;-83
2021/05/28 09:55:52;;;;;;;4.22;3.58;;;17.90;99.90;;;;;;4750356;30;20274;-85
2021/05/28 09:58:18;;;;;;;4.85;3.13;;;17.60;99.90;;;;;;4735863;30;20282;-85
2021/05/28 10:00:43;;;;;;;5.07;3.22;;;17.20;99.90;;;;;;4752374;30;20729;-84
2021/05/28 10:03:15;;;;;;;3.70;2.85;;;16.80;99.90;;;;;;4753376;30;20306;-84
2021/05/28 10:05:43;;;;;;;4.18;2.92;;;16.70;99.90;;;;;;4737985;30;20187;-85
2021/05/28 10:08:11;;;;;;;4.22;3.40;;;16.70;99.90;;;;;;4744849;30;20206;-85
2021/05/28 10:10:39;;;;;;;7.72;3.50;;;16.70;99.90;;;;;;4738108;30;20201;-85
2021/05/28 10:13:10;;;;;;;3.50;2.83;;;16.60;99.90;;;;;;4724852;30;20226;-85
2021/05/28 10:15:38;;;;;;;6.20;2.88;;;16.80;99.90;;;;;;4738631;30;20199;-85
2021/05/28 10:18:04;;;;;;;5.30;3.85;;;16.80;99.90;;;;;;4723025;30;20346;-86
2021/05/28 10:20:30;;;;;;;6.32;3.22;;;16.70;99.90;;;;;;4751875;30;20221;-86
2021/05/28 10:22:56;;;;;;;6.50;3.63;;;16.50;99.90;;;;;;4736891;30;20292;-85
2021/05/28 10:25:23;;;;;;;5.25;3.25;;;16.60;99.90;;;;;;4737602;30;20281;-85
2021/05/28 10:28:16;;;;;;;8.32;4.22;;;16.60;99.90;;;;;;4737433;30;20213;-85
2021/05/28 10:30:44;;;;;;;5.07;3.13;;;16.70;99.90;;;;;;4737354;30;20199;-86
2021/05/28 10:33:23;;;;;;;10.25;3.28;;;16.70;99.90;;;;;;4753240;30;20267;-85
2021/05/28 10:36:11;;;;;;;24.05;4.68;;;16.70;99.90;;;;;;4753683;30;20668;-86
2021/05/28 10:38:38;;;;;;;17.00;4.25;;;16.80;99.90;;;;;;4748917;30;20235;-87
2021/05/28 10:41:07;;;;;;;5.32;3.47;;;17.00;99.90;;;;;;4737606;30;20197;-83
2021/05/28 10:43:54;;;;;;;6.60;3.67;;;17.40;99.90;;;;;;4735513;30;20194;-85
2021/05/28 10:46:20;;;;;;;6.07;3.38;;;17.80;99.90;;;;;;4756298;30;20214;-85
2021/05/28 10:48:45;;;;;;;4.25;3.42;;;18.20;99.90;;;;;;4762120;30;20291;-85
2021/05/28 10:51:37;;;;;;;5.80;3.40;;;18.30;99.90;;;;;;4752964;30;20653;-86
2021/05/28 10:54:02;;;;;;;4.15;3.75;;;18.10;99.90;;;;;;4719239;30;20241;-85
2021/05/28 10:56:37;;;;;;;5.65;3.88;;;17.80;99.90;;;;;;4734235;30;20198;-86
2021/05/28 10:59:16;;;;;;;4.55;3.08;;;17.60;99.90;;;;;;4751651;30;20182;-86
2021/05/28 11:01:49;;;;;;;3.83;3.50;;;17.50;99.90;;;;;;4736517;30;20253;-85
2021/05/28 11:04:23;;;;;;;4.70;3.20;;;17.60;99.90;;;;;;4752683;30;20282;-86
2021/05/28 11:06:55;;;;;;;8.80;3.50;;;17.60;99.90;;;;;;4752054;30;20367;-85
2021/05/28 11:09:39;;;;;;;4.20;3.58;;;17.60;99.90;;;;;;4732772;30;20198;-85
2021/05/28 11:12:09;;;;;;;6.18;3.17;;;17.60;99.90;;;;;;4751229;30;20301;-85
2021/05/28 11:14:37;;;;;;;4.25;3.08;;;17.50;99.90;;;;;;4749545;30;20586;-85
2021/05/28 11:17:08;;;;;;;4.18;3.47;;;17.30;99.90;;;;;;4751843;30;20261;-87
2021/05/28 11:19:42;;;;;;;4.00;3.53;;;17.20;99.90;;;;;;4751961;30;20186;-85
2021/05/28 11:22:15;;;;;;;8.32;3.85;;;17.00;99.90;;;;;;4752988;30;20206;-86
2021/05/28 11:24:51;;;;;;;6.00;4.07;;;16.70;99.90;;;;;;4750623;30;20234;-85
2021/05/28 11:27:23;;;;;;;3.42;3.10;;;16.60;99.90;;;;;;4750731;30;20258;-85
2021/05/28 11:30:04;;;;;;;3.45;3.15;;;16.60;99.90;;;;;;4735949;30;20202;-86
2021/05/28 11:32:36;;;;;;;5.78;3.25;;;16.60;99.90;;;;;;4750837;30;20273;-85
2021/05/28 11:35:23;;;;;;;4.05;3.47;;;16.60;99.90;;;;;;4736164;30;20203;-87
2021/05/28 11:37:49;;;;;;;5.75;4.03;;;16.60;99.90;;;;;;4749076;30;20193;-87
2021/05/28 11:40:26;;;;;;;4.95;3.30;;;16.70;99.90;;;;;;4749510;30;20199;-86
2021/05/28 11:43:02;;;;;;;3.80;3.40;;;16.70;99.90;;;;;;4750885;30;20309;-87
2021/05/28 11:45:28;;;;;;;6.43;3.10;;;16.70;99.90;;;;;;4751654;30;20281;-86
2021/05/28 11:47:54;;;;;;;4.57;3.47;;;16.70;99.90;;;;;;4751349;30;20662;-86
2021/05/28 11:50:20;;;;;;;3.95;3.47;;;16.70;99.90;;;;;;4752201;30;20198;-85
2021/05/28 11:53:00;;;;;;;3.85;3.45;;;16.60;99.90;;;;;;4751756;30;20222;-85
2021/05/28 11:55:31;;;;;;;4.18;3.55;;;16.60;99.90;;;;;;4735947;30;20698;-85
2021/05/28 11:57:59;;;;;;;5.43;4.00;;;16.80;99.90;;;;;;4735331;30;20241;-86
2021/05/28 12:00:25;;;;;;;4.10;3.70;;;16.70;99.90;;;;;;4750640;30;20199;-85
2021/05/28 12:02:55;;;;;;;4.88;4.10;;;16.80;99.90;;;;;;4750552;30;20231;-86
2021/05/28 12:05:21;;;;;;;4.82;4.18;;;16.60;99.90;;;;;;4750785;30;20202;-84
2021/05/28 12:07:47;;;;;;;3.50;3.17;;;16.80;99.90;;;;;;4735278;30;20194;-84
2021/05/28 12:10:14;;;;;;;4.45;4.05;;;17.00;99.90;;;;;;4735939;30;20194;-84
2021/05/28 12:13:18;;;;;;;5.95;4.25;;;17.40;99.90;;;;;;4735221;30;20680;-84
2021/05/28 12:15:49;;;;;;;4.72;4.25;;;17.70;99.90;;;;;;4748603;30;20207;-84
2021/05/28 12:18:17;;;;;;;5.72;4.18;;;17.90;99.90;;;;;;4735421;30;20190;-84
2021/05/28 12:21:02;;;;;;;6.72;4.38;;;18.00;99.90;;;;;;4750531;30;20309;-84
2021/05/28 12:23:32;;;;;;;7.78;4.13;;;17.90;99.90;;;;;;4750690;30;20238;-84
2021/05/28 12:26:08;;;;;;;5.90;4.35;;;17.80;99.90;;;;;;4749990;30;20203;-84
2021/05/28 12:28:42;;;;;;;10.25;4.68;;;17.60;99.90;;;;;;4751717;30;20213;-84
2021/05/28 12:31:14;;;;;;;5.80;4.45;;;17.40;99.90;;;;;;4751077;30;20543;-83
2021/05/28 12:33:43;;;;;;;8.73;4.50;;;17.30;99.90;;;;;;4735010;30;20222;-83
2021/05/28 12:36:12;;;;;;;9.60;4.40;;;17.40;99.90;;;;;;4734665;30;20190;-83
2021/05/28 12:38:41;;;;;;;4.72;4.15;;;17.60;99.90;;;;;;4750376;30;20191;-84
2021/05/28 12:41:09;;;;;;;7.40;4.22;;;17.70;99.90;;;;;;4735012;30;20191;-84
2021/05/28 12:43:40;;;;;;;4.97;4.20;;;17.50;99.90;;;;;;4751183;30;20201;-83